Time;durP1;ratioP1;P1;durP2;ratioP2;P2;SDS_P1;SDS_P2;PMS_P1;PMS_P2;Temp;Humidity;BMP_temperature;BMP_pressure;BME280_temperature;BME280_humidity;BME280_pressure;Samples;Min_cycle;Max_cycle;Signal;HPM_P1;HPM_P2
2022/05/14 00:00:28;;;;;;;7.43;5.07;;;;;;;19.91;40.38;99252.00;5033944;28;20481;-86
2022/05/14 00:02:55;;;;;;;7.00;5.05;;;;;;;20.52;40.56;99360.16;5034006;28;20033;-86
2022/05/14 00:05:24;;;;;;;5.32;4.57;;;;;;;20.47;40.44;99362.75;5052273;28;20033;-86
2022/05/14 00:07:53;;;;;;;5.95;5.15;;;;;;;20.19;40.60;99314.59;5035368;28;20021;-86
2022/05/14 00:10:21;;;;;;;7.32;4.60;;;;;;;20.47;40.81;99356.59;5052495;28;20485;-86
2022/05/14 00:13:05;;;;;;;4.78;4.25;;;;;;;18.39;40.94;99030.81;5051570;28;20028;-86
2022/05/14 00:15:37;;;;;;;5.90;4.53;;;;;;;20.41;40.98;99349.53;5033716;28;20025;-86
2022/05/14 00:18:04;;;;;;;5.18;4.60;;;;;;;20.17;41.05;99301.44;5051531;28;20024;-86
2022/05/14 00:20:30;;;;;;;6.38;4.43;;;;;;;20.34;41.05;99314.00;5051611;28;20029;-86
2022/05/14 00:22:55;;;;;;;5.63;4.22;;;;;;;19.98;41.01;99268.72;5033789;28;20085;-86
2022/05/14 00:25:21;;;;;;;5.35;4.80;;;;;;;19.25;41.32;99169.78;5051348;28;20113;-86
2022/05/14 00:27:48;;;;;;;7.80;4.50;;;;;;;19.68;41.40;99217.34;5051888;28;20036;-86
2022/05/14 00:30:16;;;;;;;7.68;4.78;;;;;;;20.23;41.35;99332.63;5033486;28;20426;-86
2022/05/14 00:32:41;;;;;;;6.72;4.75;;;;;;;18.39;41.47;99014.78;5051715;28;20183;-86
2022/05/14 00:35:09;;;;;;;5.20;3.90;;;;;;;20.06;40.99;99286.25;5051553;28;20510;-86
2022/05/14 00:37:35;;;;;;;4.80;3.75;;;;;;;20.57;41.26;99344.13;5051594;28;20033;-86
2022/05/14 00:40:03;;;;;;;7.25;4.10;;;;;;;20.58;41.36;99347.63;5033244;28;20048;-86
2022/05/14 00:42:31;;;;;;;6.10;4.65;;;;;;;19.43;41.31;99158.03;5033343;28;20060;-86
2022/05/14 00:44:57;;;;;;;6.43;4.90;;;;;;;19.12;41.57;99114.72;5051376;28;20025;-86
2022/05/14 00:47:23;;;;;;;5.85;4.18;;;;;;;19.95;41.44;99253.13;5051576;28;20028;-86
2022/05/14 00:49:49;;;;;;;6.60;4.47;;;;;;;19.97;41.55;99275.13;5051201;28;20106;-85
2022/05/14 00:52:18;;;;;;;5.35;4.60;;;;;;;19.45;41.53;99212.97;5033337;28;20075;-86
2022/05/14 00:54:52;;;;;;;6.65;4.43;;;;;;;19.70;41.81;99252.75;5051119;28;20109;-87
2022/05/14 00:57:22;;;;;;;7.13;5.00;;;;;;;19.52;42.28;99223.50;5033430;28;20545;-86
2022/05/14 00:59:48;;;;;;;4.95;4.40;;;;;;;19.76;42.12;99257.13;5051212;28;20156;-86
2022/05/14 01:02:14;;;;;;;6.20;4.72;;;;;;;18.75;42.28;99105.53;5039675;28;20044;-86
2022/05/14 01:04:42;;;;;;;4.93;4.20;;;;;;;20.15;42.10;99330.38;5057987;28;20025;-86
2022/05/14 01:07:17;;;;;;;6.95;4.50;;;;;;;19.98;42.31;99286.66;5040437;28;20033;-86
2022/05/14 01:09:47;;;;;;;6.40;4.30;;;;;;;19.90;42.33;99300.47;5035518;28;20059;-86
2022/05/14 01:12:14;;;;;;;7.95;5.07;;;;;;;20.14;42.56;99344.81;5053414;28;20036;-86
2022/05/14 01:14:40;;;;;;;7.03;4.50;;;;;;;20.14;42.60;99346.69;5055470;28;20025;-86
2022/05/14 01:17:05;;;;;;;8.93;4.65;;;;;;;20.15;42.56;99346.44;5037011;28;20520;-86
2022/05/14 01:19:31;;;;;;;7.25;4.22;;;;;;;20.00;42.58;99322.06;5054935;28;20035;-86
2022/05/14 01:22:38;;;;;;;7.88;5.20;;;;;;;20.15;42.99;99351.00;5054563;28;20099;-86
2022/05/14 01:28:29;;;;;;;7.70;4.90;;;;;;;19.71;42.78;99294.53;5054836;28;20078;-86
2022/05/14 01:31:01;;;;;;;7.13;5.05;;;;;;;20.04;43.06;99336.59;5054589;28;20028;-86
2022/05/14 01:33:27;;;;;;;8.63;5.13;;;;;;;19.60;42.83;99261.44;5036856;28;20028;-86
2022/05/14 01:35:53;;;;;;;15.23;6.32;;;;;;;19.66;42.53;99251.63;5054824;28;20048;-86
2022/05/14 01:38:20;;;;;;;6.38;5.07;;;;;;;20.26;42.34;99350.09;5036521;28;20510;-86
2022/05/14 01:40:46;;;;;;;5.40;4.72;;;;;;;19.97;42.27;99295.75;5054536;28;20047;-86
2022/05/14 01:43:12;;;;;;;5.00;4.50;;;;;;;19.66;42.13;99257.78;5054286;28;20537;-86
2022/05/14 01:45:37;;;;;;;6.15;5.20;;;;;;;19.91;42.34;99312.81;5054424;28;20025;-86
2022/05/14 01:48:03;;;;;;;9.57;5.10;;;;;;;19.88;42.67;99348.94;5054313;28;20021;-86
2022/05/14 01:50:29;;;;;;;7.57;4.80;;;;;;;19.41;42.69;99294.81;5054269;28;20529;-86
2022/05/14 01:52:54;;;;;;;6.53;5.18;;;;;;;19.19;42.74;99251.03;5054121;28;20111;-86
2022/05/14 01:55:20;;;;;;;6.65;4.70;;;;;;;19.10;42.77;99281.91;5054096;28;20025;-86
2022/05/14 01:57:45;;;;;;;5.72;4.78;;;;;;;19.45;42.98;99327.28;5054162;28;20036;-86
2022/05/14 02:00:13;;;;;;;6.05;5.18;;;;;;;19.64;42.98;99332.22;5054199;28;20070;-86
2022/05/14 02:02:38;;;;;;;8.27;5.03;;;;;;;19.63;42.97;99343.16;5054175;28;20486;-86
2022/05/14 02:05:04;;;;;;;7.88;5.13;;;;;;;19.57;43.06;99338.78;5054072;28;20074;-86
2022/05/14 02:07:30;;;;;;;5.22;4.80;;;;;;;19.46;42.98;99358.34;5054111;28;20115;-86
2022/05/14 02:09:55;;;;;;;8.18;5.68;;;;;;;18.79;43.52;99280.53;5036224;28;20067;-86
2022/05/14 02:12:21;;;;;;;6.07;5.45;;;;;;;19.23;43.25;99327.13;5036223;28;20029;-86
2022/05/14 02:14:46;;;;;;;6.40;5.25;;;;;;;19.26;43.68;99353.41;5036171;28;20032;-86
2022/05/14 02:17:13;;;;;;;8.05;6.07;;;;;;;18.24;43.68;99185.53;5054142;28;20028;-86
2022/05/14 02:19:38;;;;;;;8.07;6.05;;;;;;;18.61;43.82;99244.03;5053976;28;20024;-86
2022/05/14 02:22:05;;;;;;;7.63;5.32;;;;;;;19.04;43.99;99330.00;5036242;28;20040;-86
2022/05/14 02:24:33;;;;;;;7.18;5.45;;;;;;;17.92;44.18;99160.28;5053480;28;20025;-86
2022/05/14 02:26:59;;;;;;;8.18;5.80;;;;;;;18.25;44.29;99211.22;5054094;28;20100;-86
2022/05/14 02:29:25;;;;;;;11.27;5.70;;;;;;;18.80;44.17;99320.41;5036281;28;20060;-86
2022/05/14 02:31:51;;;;;;;7.40;5.72;;;;;;;18.23;44.42;99228.53;5036304;28;20029;-85
2022/05/14 02:34:17;;;;;;;9.00;6.20;;;;;;;18.50;44.74;99279.63;5036170;28;20466;-86
2022/05/14 02:36:42;;;;;;;7.40;6.30;;;;;;;18.80;44.84;99333.78;5054306;28;20071;-86
2022/05/14 02:39:08;;;;;;;7.75;6.00;;;;;;;18.25;44.78;99255.84;5054072;28;20045;-86
2022/05/14 02:41:34;;;;;;;11.63;6.03;;;;;;;18.17;44.83;99246.31;5054078;28;20066;-86
2022/05/14 02:43:59;;;;;;;10.07;5.40;;;;;;;18.55;44.67;99288.56;5053325;28;20024;-86
2022/05/14 02:46:25;;;;;;;6.13;5.40;;;;;;;18.91;44.84;99343.66;5035687;28;20087;-86
2022/05/14 02:48:50;;;;;;;7.88;6.15;;;;;;;18.22;44.72;99224.25;5035633;28;20482;-86
2022/05/14 02:51:16;;;;;;;7.68;5.43;;;;;;;18.75;44.58;99323.00;5053189;28;20033;-86
2022/05/14 02:53:41;;;;;;;7.85;5.35;;;;;;;18.91;44.69;99342.84;5053226;28;20029;-86
2022/05/14 02:56:07;;;;;;;10.55;5.72;;;;;;;18.32;44.62;99252.00;5053257;28;20489;-85
2022/05/14 03:01:47;;;;;;;10.05;5.82;;;;;;;19.07;44.59;99336.72;4972536;28;20041;-85
2022/05/14 03:04:15;;;;;;;10.60;5.53;;;;;;;19.11;44.64;99337.88;4956260;28;20074;-86
2022/05/14 03:06:40;;;;;;;7.93;5.50;;;;;;;18.83;44.43;99284.34;5016477;28;20044;-86
2022/05/14 03:09:05;;;;;;;11.30;5.03;;;;;;;18.51;44.40;99227.78;5052853;28;20449;-86
2022/05/14 03:11:32;;;;;;;9.77;6.03;;;;;;;19.01;44.32;99292.19;5052789;28;20021;-86
2022/05/14 03:13:57;;;;;;;7.55;5.10;;;;;;;18.60;44.19;99218.34;5034768;28;20128;-86
2022/05/14 03:16:22;;;;;;;7.90;5.95;;;;;;;19.34;43.81;99367.25;5052733;28;20132;-86
2022/05/14 03:18:48;;;;;;;9.07;5.47;;;;;;;18.72;44.10;99238.69;5052816;28;20024;-86
2022/05/14 03:21:13;;;;;;;6.93;5.60;;;;;;;18.78;44.34;99260.19;5034839;28;20024;-86
2022/05/14 03:23:39;;;;;;;11.52;5.78;;;;;;;18.67;44.45;99270.69;5052645;28;20029;-86
2022/05/14 03:26:04;;;;;;;7.20;5.40;;;;;;;18.91;44.56;99330.28;5052699;28;20453;-86
2022/05/14 03:28:29;;;;;;;7.40;5.32;;;;;;;18.02;44.61;99188.03;5034801;28;20025;-86
2022/05/14 03:30:57;;;;;;;5.88;5.30;;;;;;;18.04;44.79;99195.81;5034698;28;20099;-86
2022/05/14 03:33:22;;;;;;;8.10;5.85;;;;;;;18.61;44.94;99293.03;5034946;28;20401;-86
2022/05/14 03:35:48;;;;;;;8.95;7.18;;;;;;;18.47;45.14;99285.44;5034335;28;20025;-86
2022/05/14 03:38:13;;;;;;;10.63;9.40;;;;;;;18.72;45.29;99358.22;5052663;28;20051;-86
2022/05/14 03:40:39;;;;;;;11.52;10.43;;;;;;;17.79;45.42;99204.88;5052792;28;20413;-86
2022/05/14 03:43:04;;;;;;;12.43;11.23;;;;;;;18.42;45.60;99294.16;5052322;28;20461;-86
2022/05/14 03:45:30;;;;;;;13.05;10.48;;;;;;;18.28;45.55;99268.72;5052085;28;20029;-86
2022/05/14 03:47:55;;;;;;;11.82;10.63;;;;;;;18.65;45.46;99320.09;5034240;28;20052;-86
2022/05/14 03:50:21;;;;;;;16.17;12.13;;;;;;;18.80;45.35;99331.13;5052209;28;20021;-86
2022/05/14 03:52:46;;;;;;;13.60;10.38;;;;;;;18.35;45.39;99256.88;5034247;28;20039;-86
2022/05/14 03:55:12;;;;;;;11.98;10.85;;;;;;;17.88;45.32;99175.97;5052451;28;20028;-86
2022/05/14 03:57:37;;;;;;;13.05;11.32;;;;;;;17.95;45.32;99191.88;5034218;28;20031;-86
2022/05/14 04:00:07;;;;;;;13.45;11.75;;;;;;;18.65;45.26;99296.84;5034265;28;20029;-86
2022/05/14 04:02:33;;;;;;;14.73;12.43;;;;;;;18.38;45.22;99252.91;5051861;28;20522;-85
2022/05/14 04:04:58;;;;;;;12.63;11.32;;;;;;;18.49;45.33;99269.97;5051629;28;20095;-86
2022/05/14 04:07:24;;;;;;;12.63;10.80;;;;;;;19.10;45.35;99365.69;5033949;28;20025;-86
2022/05/14 04:09:49;;;;;;;14.82;13.43;;;;;;;17.99;45.25;99187.69;5051672;28;20028;-86
2022/05/14 04:12:14;;;;;;;12.73;11.43;;;;;;;18.42;45.43;99268.25;5033771;28;20154;-86
2022/05/14 04:14:40;;;;;;;12.70;9.57;;;;;;;18.05;45.45;99208.94;5052278;28;20072;-86
2022/05/14 04:17:06;;;;;;;13.63;10.27;;;;;;;18.43;45.59;99269.06;5052043;28;20501;-85
2022/05/14 04:19:31;;;;;;;11.02;9.48;;;;;;;19.00;45.72;99374.31;5034135;28;20031;-86
2022/05/14 04:21:57;;;;;;;13.95;9.40;;;;;;;18.36;45.60;99269.19;5034275;28;20033;-86
2022/05/14 04:24:23;;;;;;;14.40;8.10;;;;;;;19.08;45.53;99388.38;5052193;28;20025;-86
2022/05/14 04:26:48;;;;;;;11.32;7.70;;;;;;;18.51;45.75;99306.13;5052222;28;20080;-85
2022/05/14 04:29:14;;;;;;;10.13;7.78;;;;;;;19.11;45.82;99393.25;5033502;28;20028;-86
2022/05/14 04:31:39;;;;;;;8.93;7.03;;;;;;;18.76;45.80;99374.63;5051262;28;20485;-86
2022/05/14 04:34:06;;;;;;;9.77;7.30;;;;;;;18.28;45.81;99264.19;5051261;28;20501;-86
2022/05/14 04:36:31;;;;;;;9.23;6.78;;;;;;;18.89;46.01;99382.38;5051601;28;20029;-86
2022/05/14 04:38:57;;;;;;;10.77;6.13;;;;;;;19.14;45.76;99403.50;5033396;28;20640;-86
2022/05/14 04:41:24;;;;;;;8.07;6.55;;;;;;;18.47;45.86;99296.94;5051471;28;20112;-85
2022/05/14 04:43:49;;;;;;;7.32;6.57;;;;;;;19.16;45.97;99406.75;5051835;28;20520;-85
2022/05/14 04:46:15;;;;;;;7.72;6.90;;;;;;;18.45;46.23;99288.34;5053612;28;20025;-86
2022/05/14 04:48:40;;;;;;;10.70;6.38;;;;;;;18.09;46.40;99262.72;5040602;28;20171;-86
2022/05/14 04:51:06;;;;;;;9.15;6.45;;;;;;;18.85;46.61;99363.31;5058136;28;20025;-86
2022/05/14 04:53:32;;;;;;;13.80;7.22;;;;;;;19.25;46.99;99410.69;5058252;28;20029;-86
2022/05/14 04:55:57;;;;;;;7.97;6.38;;;;;;;18.94;46.63;99385.16;5040529;28;20032;-85
2022/05/14 04:58:23;;;;;;;9.15;6.50;;;;;;;18.78;46.75;99333.22;5058591;28;20115;-87
2022/05/14 05:00:48;;;;;;;6.22;4.90;;;;;;;19.34;46.45;99420.81;5058157;28;20116;-87
2022/05/14 05:03:17;;;;;;;9.00;6.53;;;;;;;18.75;46.63;99320.31;5058075;28;20040;-87
2022/05/14 05:05:43;;;;;;;11.32;7.70;;;;;;;19.30;46.38;99421.50;5058186;28;20036;-87
2022/05/14 05:08:09;;;;;;;11.50;8.90;;;;;;;17.88;46.28;99184.00;5058317;28;20031;-86
2022/05/14 05:10:36;;;;;;;9.93;8.90;;;;;;;19.45;46.27;99421.00;5058530;28;20032;-87
2022/05/14 05:13:01;;;;;;;12.77;8.10;;;;;;;19.43;46.22;99425.78;5058319;28;20028;-87
2022/05/14 05:15:27;;;;;;;8.98;8.05;;;;;;;19.45;46.13;99416.47;5058471;28;20017;-87
2022/05/14 05:17:53;;;;;;;7.47;6.43;;;;;;;18.96;45.77;99327.69;5058574;28;20517;-86
2022/05/14 05:20:18;;;;;;;7.15;6.47;;;;;;;18.16;45.67;99191.25;5058497;28;20512;-86
2022/05/14 05:22:44;;;;;;;8.82;6.63;;;;;;;19.63;45.64;99415.47;5058747;28;20106;-86
2022/05/14 05:25:12;;;;;;;7.82;6.35;;;;;;;19.38;45.40;99375.63;5058599;28;20460;-85
2022/05/14 05:27:37;;;;;;;9.75;6.13;;;;;;;19.28;45.22;99346.78;5040577;28;20414;-85
2022/05/14 05:30:04;;;;;;;8.15;6.25;;;;;;;19.83;45.14;99434.59;5058051;28;20028;-85
2022/05/14 05:32:29;;;;;;;6.22;5.60;;;;;;;18.48;45.11;99194.31;5040500;28;20106;-85
2022/05/14 05:34:55;;;;;;;8.60;6.63;;;;;;;18.48;45.03;99204.19;5064384;28;20021;-86
2022/05/14 05:37:20;;;;;;;7.13;5.55;;;;;;;19.31;45.11;99334.78;5070930;28;20123;-85
2022/05/14 05:39:46;;;;;;;9.85;7.53;;;;;;;19.10;44.86;99282.72;5074310;28;20072;-85
2022/05/14 05:42:11;;;;;;;9.55;7.30;;;;;;;20.00;45.01;99415.88;5050962;28;20030;-86
2022/05/14 05:44:37;;;;;;;7.22;6.30;;;;;;;19.63;45.04;99352.00;5057912;28;20032;-86
2022/05/14 05:47:06;;;;;;;7.90;6.18;;;;;;;20.20;45.00;99410.88;5057942;28;20029;-86
2022/05/14 05:49:33;;;;;;;8.85;5.15;;;;;;;19.32;44.80;99258.75;5058116;28;20158;-86
2022/05/14 05:51:58;;;;;;;7.75;5.50;;;;;;;19.16;44.73;99230.09;5040053;28;20029;-87
2022/05/14 05:57:08;;;;;;;10.90;6.15;;;;;;;19.69;44.75;99302.03;5057771;28;20174;-87
2022/05/14 05:59:33;;;;;;;8.80;6.78;;;;;;;19.90;44.60;99319.22;5053286;28;20108;-87
2022/05/14 06:01:59;;;;;;;8.52;6.20;;;;;;;20.43;44.23;99396.50;5054051;28;20033;-87
2022/05/14 06:04:24;;;;;;;7.40;5.55;;;;;;;20.36;44.15;99381.59;5053821;28;20040;-87
2022/05/14 06:06:50;;;;;;;7.32;4.93;;;;;;;19.96;44.10;99286.09;5036060;28;20025;-86
2022/05/14 06:09:19;;;;;;;7.30;4.85;;;;;;;20.86;43.72;99413.75;5035941;28;20029;-87
2022/05/14 06:11:45;;;;;;;7.00;5.25;;;;;;;20.96;43.85;99413.88;5053762;28;20545;-87
2022/05/14 06:14:11;;;;;;;9.40;5.10;;;;;;;20.40;43.50;99307.69;5035902;28;20123;-87
2022/05/14 06:16:36;;;;;;;7.32;5.28;;;;;;;20.00;43.35;99231.75;5053882;28;20029;-85
2022/05/14 06:19:02;;;;;;;6.82;5.05;;;;;;;21.22;43.16;99420.38;5053880;28;20489;-86
2022/05/14 06:21:27;;;;;;;7.40;5.25;;;;;;;20.96;42.78;99364.78;5053713;28;20481;-86
2022/05/14 06:23:54;;;;;;;5.95;4.93;;;;;;;21.21;42.49;99383.84;5053516;28;20036;-86
2022/05/14 06:26:20;;;;;;;7.40;4.80;;;;;;;20.80;42.13;99321.63;5053900;28;20029;-86
2022/05/14 06:28:45;;;;;;;5.45;4.35;;;;;;;21.46;41.98;99431.72;5053678;28;20079;-86
2022/05/14 06:31:11;;;;;;;5.70;4.65;;;;;;;20.91;41.87;99319.91;5053761;28;20033;-86
2022/05/14 06:33:37;;;;;;;5.50;5.03;;;;;;;21.08;41.98;99339.41;5053563;28;20029;-86
2022/05/14 06:36:03;;;;;;;5.28;4.65;;;;;;;20.20;41.51;99191.03;5053455;28;20102;-85
2022/05/14 06:38:28;;;;;;;6.78;4.70;;;;;;;21.76;41.61;99425.88;5035349;28;20571;-86
2022/05/14 06:40:54;;;;;;;9.30;5.07;;;;;;;21.20;41.34;99315.09;5035531;28;20117;-86
2022/05/14 06:43:19;;;;;;;5.85;4.57;;;;;;;21.96;41.36;99425.25;5035473;28;20037;-86
2022/05/14 06:45:45;;;;;;;7.10;4.68;;;;;;;21.84;41.35;99403.91;5053686;28;20091;-85
2022/05/14 06:48:11;;;;;;;5.75;5.25;;;;;;;22.16;41.22;99428.97;5053611;28;20481;-86
2022/05/14 06:50:44;;;;;;;6.70;4.63;;;;;;;21.90;41.58;99378.69;5035386;28;20039;-85
2022/05/14 06:53:12;;;;;;;5.20;4.40;;;;;;;21.80;41.22;99357.91;5053796;28;20091;-86
2022/05/14 06:55:40;;;;;;;4.88;4.43;;;;;;;22.04;41.32;99379.91;5035566;28;20127;-86
2022/05/14 06:58:10;;;;;;;6.10;4.68;;;;;;;21.41;41.18;99259.75;5035707;28;20115;-86
2022/05/14 07:00:36;;;;;;;6.00;4.43;;;;;;;22.23;41.21;99377.63;5053597;28;20103;-86
2022/05/14 07:08:30;;;;;;;38.60;24.90;;;;;;;21.93;41.13;99286.78;5053573;28;20039;-85
2022/05/14 07:10:56;;;;;;;48.42;33.33;;;;;;;22.57;41.30;99375.47;5034656;28;20021;-87
2022/05/14 07:13:21;;;;;;;11.15;8.23;;;;;;;21.52;40.90;99192.41;5035268;28;20024;-87
2022/05/14 07:15:47;;;;;;;6.72;5.50;;;;;;;22.35;40.44;99326.38;5034932;28;20020;-87
2022/05/14 07:18:12;;;;;;;9.35;8.38;;;;;;;23.06;40.52;99440.66;5053108;28;20478;-87
2022/05/14 07:20:37;;;;;;;6.97;6.03;;;;;;;22.79;40.22;99378.00;5053293;28;20027;-87
2022/05/14 07:23:03;;;;;;;9.60;6.28;;;;;;;23.09;40.17;99433.94;5053239;28;20031;-87
2022/05/14 07:25:28;;;;;;;6.57;5.13;;;;;;;23.28;39.88;99455.84;5053026;28;20028;-87
2022/05/14 07:27:54;;;;;;;6.68;4.90;;;;;;;22.55;39.85;99325.66;5035220;28;20402;-87
2022/05/14 07:30:20;;;;;;;6.82;5.53;;;;;;;22.42;39.68;99271.25;5052748;28;20418;-87
2022/05/14 07:32:46;;;;;;;9.82;7.10;;;;;;;23.13;39.44;99378.47;5034717;28;20024;-87
2022/05/14 07:35:11;;;;;;;5.07;4.53;;;;;;;23.07;39.31;99349.91;5053018;28;20031;-86
2022/05/14 07:37:43;;;;;;;6.63;4.88;;;;;;;23.10;38.80;99346.69;5034828;28;20028;-86
2022/05/14 07:40:10;;;;;;;;;;;;;;;23.66;39.14;99443.88;5052824;28;20567;-86
2022/05/14 07:42:41;;;;;;;5.97;4.72;;;;;;;23.18;38.65;99345.38;5052783;28;19916;-87
2022/05/14 07:45:10;;;;;;;7.78;4.78;;;;;;;22.91;38.61;99286.28;5052722;28;20115;-86
2022/05/14 07:47:37;;;;;;;5.38;4.55;;;;;;;23.52;38.26;99368.06;5052803;28;20033;-87
2022/05/14 07:50:03;;;;;;;6.22;4.40;;;;;;;24.10;38.08;99465.81;5052581;28;20514;-87
2022/05/14 07:52:29;;;;;;;6.05;4.97;;;;;;;23.36;38.39;99337.59;5052361;28;20052;-87
2022/05/14 07:54:55;;;;;;;7.88;4.50;;;;;;;23.69;38.30;99374.06;5052357;28;20029;-86
2022/05/14 07:57:21;;;;;;;4.45;4.05;;;;;;;23.63;38.17;99358.94;5034249;28;20031;-86
2022/05/14 07:59:47;;;;;;;5.13;4.20;;;;;;;24.17;37.45;99430.47;5051527;28;20044;-86
2022/05/14 08:02:24;;;;;;;4.68;3.92;;;;;;;24.32;37.37;99441.28;5034038;28;20078;-86
2022/05/14 08:04:49;;;;;;;9.70;4.15;;;;;;;23.76;37.31;99346.81;5033943;28;20032;-86
2022/05/14 08:07:15;;;;;;;5.53;3.72;;;;;;;23.52;36.83;99291.81;5051961;28;20024;-86
2022/05/14 08:09:40;;;;;;;4.93;4.05;;;;;;;23.68;36.92;99318.53;5051792;28;20506;-86
2022/05/14 08:12:06;;;;;;;7.78;5.18;;;;;;;23.95;37.03;99339.84;5051822;28;20033;-86
2022/05/14 08:14:33;;;;;;;6.10;4.28;;;;;;;24.25;36.91;99359.78;5052110;28;20105;-86
2022/05/14 08:16:59;;;;;;;3.85;3.38;;;;;;;24.10;36.83;99322.84;5051811;28;20123;-86
2022/05/14 08:19:24;;;;;;;6.25;3.83;;;;;;;24.15;36.54;99319.34;5033941;28;20091;-86
2022/05/14 08:24:34;;;;;;;7.13;4.32;;;;;;;24.90;37.04;99439.06;5051503;28;20035;-86
2022/05/14 08:27:08;;;;;;;4.50;4.10;;;;;;;24.99;36.52;99445.56;5033652;28;20028;-86
2022/05/14 08:29:33;;;;;;;4.90;3.95;;;;;;;24.12;36.83;99315.28;5033929;28;20025;-86
2022/05/14 08:31:59;;;;;;;7.88;3.95;;;;;;;23.99;36.95;99278.09;5051800;28;20035;-86
2022/05/14 08:34:25;;;;;;;4.93;4.45;;;;;;;24.81;36.93;99394.81;5051445;28;20413;-87
2022/05/14 08:36:50;;;;;;;6.60;4.40;;;;;;;24.93;36.77;99406.91;5051358;28;20021;-86
2022/05/14 08:39:16;;;;;;;5.65;4.10;;;;;;;24.61;37.08;99352.47;5033514;28;20063;-86
2022/05/14 08:41:47;;;;;;;9.73;4.35;;;;;;;24.63;37.10;99361.09;5051581;28;20025;-86
2022/05/14 08:44:17;;;;;;;5.25;4.68;;;;;;;24.37;37.14;99361.13;5033561;28;20028;-86
2022/05/14 08:46:45;;;;;;;8.50;4.38;;;;;;;24.74;37.69;99399.69;5051847;28;20033;-86
2022/05/14 08:49:20;;;;;;;6.70;4.25;;;;;;;24.42;37.64;99376.50;5051949;28;20473;-86
2022/05/14 08:51:50;;;;;;;7.13;4.90;;;;;;;25.15;37.54;99468.75;5051887;28;20056;-86
2022/05/14 08:54:15;;;;;;;6.00;4.53;;;;;;;24.91;37.18;99410.97;5051659;28;20079;-86
2022/05/14 08:57:04;;;;;;;9.10;5.40;;;;;;;25.17;36.94;99450.34;5033929;28;20028;-86
2022/05/14 09:00:02;;;;;;;4.93;4.53;;;;;;;25.40;37.04;99475.97;5051158;28;20041;-86
2022/05/14 09:02:39;;;;;;;5.35;4.80;;;;;;;25.17;36.31;99422.53;4997336;28;20123;-86
2022/05/14 09:05:16;;;;;;;5.38;4.63;;;;;;;25.49;36.76;99478.91;5051736;28;20033;-86
2022/05/14 09:07:43;;;;;;;6.35;4.60;;;;;;;25.50;36.62;99481.31;5052134;28;20021;-87
2022/05/14 09:10:32;;;;;;;6.05;3.88;;;;;;;25.45;37.09;99475.94;5052088;28;20024;-86
2022/05/14 09:13:13;;;;;;;7.53;4.70;;;;;;;25.67;37.16;99466.66;5051815;28;20458;-86
2022/05/14 09:15:46;;;;;;;6.38;4.50;;;;;;;25.82;37.08;99472.00;5051647;28;20028;-86
2022/05/14 09:18:19;;;;;;;7.97;4.20;;;;;;;25.73;36.84;99427.69;5051718;28;20036;-86
2022/05/14 09:20:55;;;;;;;7.43;4.55;;;;;;;26.31;36.26;99471.13;5051160;28;20116;-86
2022/05/14 09:23:32;;;;;;;6.35;4.50;;;;;;;26.07;35.65;99390.69;5051564;28;20513;-86
2022/05/14 09:26:09;;;;;;;6.50;4.65;;;;;;;26.66;35.76;99467.34;5051488;28;20029;-86
2022/05/14 09:28:44;;;;;;;7.53;4.43;;;;;;;27.14;35.16;99470.94;5051613;28;20033;-86
2022/05/14 09:31:09;;;;;;;7.05;5.00;;;;;;;27.17;34.54;99419.69;5051742;28;20078;-86
2022/05/14 09:33:40;;;;;;;4.60;4.15;;;;;;;27.24;33.32;99430.16;5035120;28;20033;-86
2022/05/14 09:36:12;;;;;;;6.35;4.32;;;;;;;26.88;32.86;99346.56;5055505;28;20078;-85
2022/05/14 09:38:38;;;;;;;4.95;4.45;;;;;;;27.30;31.93;99373.97;5055468;28;20053;-86
2022/05/14 09:41:10;;;;;;;6.18;4.18;;;;;;;28.13;32.14;99460.16;5055465;28;20021;-86
2022/05/14 09:43:37;;;;;;;11.73;8.40;;;;;;;28.21;31.86;99448.63;5054855;28;20060;-86
2022/05/14 09:46:07;;;;;;;6.10;4.65;;;;;;;28.46;31.78;99461.84;5054988;28;20032;-86
2022/05/14 09:48:48;;;;;;;6.38;4.18;;;;;;;28.51;31.41;99460.13;5037150;28;20086;-86
2022/05/14 09:51:37;;;;;;;5.10;4.07;;;;;;;28.38;31.49;99488.88;5055017;28;20028;-86
2022/05/14 09:54:19;;;;;;;9.32;4.30;;;;;;;28.40;31.14;99454.06;5035355;28;20040;-86
2022/05/14 09:57:10;;;;;;;4.10;3.70;;;;;;;28.66;30.60;99465.28;5054601;28;20501;-86
2022/05/14 09:59:54;;;;;;;4.78;4.30;;;;;;;28.65;30.81;99448.19;5054320;28;20025;-85
2022/05/14 10:02:45;;;;;;;6.47;4.05;;;;;;;28.75;31.06;99467.03;5054956;28;20028;-86
2022/05/14 10:05:46;;;;;;;7.15;4.50;;;;;;;28.79;30.22;99388.41;5055246;28;20056;-85
2022/05/14 10:08:24;;;;;;;5.95;4.35;;;;;;;29.25;30.10;99436.47;5055088;28;20414;-86
2022/05/14 10:11:14;;;;;;;4.68;4.03;;;;;;;29.52;29.82;99436.47;5054702;28;20108;-86
2022/05/14 10:13:45;;;;;;;5.97;5.45;;;;;;;29.58;30.42;99437.97;5036680;28;20017;-86
2022/05/14 10:16:16;;;;;;;;;;;;;;;29.81;30.37;99430.66;5054825;28;20021;-86
2022/05/14 10:19:05;;;;;;;7.57;4.70;;;;;;;29.99;29.99;99432.41;5054719;28;19999;-86
2022/05/14 10:22:09;;;;;;;4.80;4.40;;;;;;;30.06;29.62;99433.94;5054404;28;20031;-86
2022/05/14 10:28:07;;;;;;;5.47;4.43;;;;;;;29.24;29.78;99347.84;5054086;28;20174;-85
2022/05/14 10:30:53;;;;;;;6.35;4.55;;;;;;;29.27;30.53;99426.09;5053438;28;20013;-85
2022/05/14 10:33:23;;;;;;;7.45;4.78;;;;;;;28.98;31.19;99419.06;5053579;28;20025;-85
2022/05/14 10:36:04;;;;;;;6.00;5.18;;;;;;;28.75;31.80;99437.13;5051089;28;20043;-85
2022/05/14 10:38:51;;;;;;;12.70;5.35;;;;;;;28.50;32.46;99442.22;5059673;28;20509;-83
2022/05/14 10:41:31;;;;;;;8.32;4.97;;;;;;;28.26;32.69;99445.88;5092246;28;20024;-83
2022/05/14 10:44:05;;;;;;;8.55;5.50;;;;;;;27.60;32.71;99362.72;5074491;28;20454;-84
2022/05/14 10:46:34;;;;;;;5.20;4.70;;;;;;;27.72;32.02;99395.66;5093995;28;20520;-84
2022/05/14 10:49:20;;;;;;;6.68;5.55;;;;;;;28.03;32.42;99442.13;5093197;28;20492;-84
2022/05/14 10:51:48;;;;;;;8.85;4.82;;;;;;;28.15;32.50;99447.91;5093252;28;20030;-84
2022/05/14 10:54:17;;;;;;;10.55;5.78;;;;;;;27.49;31.96;99279.88;5093504;28;20037;-85
2022/05/14 10:56:50;;;;;;;6.05;5.45;;;;;;;28.82;31.47;99447.59;5093356;28;20024;-84
2022/05/14 10:59:32;;;;;;;7.35;4.80;;;;;;;27.79;31.04;99263.16;5093290;28;20511;-85
2022/05/14 11:01:57;;;;;;;5.60;4.38;;;;;;;29.15;30.86;99434.78;5093362;28;20415;-85
2022/05/14 11:04:30;;;;;;;5.57;4.47;;;;;;;29.24;30.42;99422.06;5093223;28;20028;-84
2022/05/14 11:07:00;;;;;;;6.82;4.80;;;;;;;29.80;30.42;99436.41;5093171;28;20028;-84
2022/05/14 11:09:49;;;;;;;6.15;4.50;;;;;;;30.23;29.84;99423.16;5093314;28;20031;-85
2022/05/14 11:12:21;;;;;;;10.05;5.22;;;;;;;30.89;29.17;99443.28;5093239;28;20084;-85
2022/05/14 11:14:55;;;;;;;5.93;4.85;;;;;;;31.17;28.94;99441.94;5093254;28;20489;-85
2022/05/14 11:17:27;;;;;;;5.55;4.60;;;;;;;30.62;28.38;99297.91;5093253;28;20020;-85
2022/05/14 11:20:17;;;;;;;6.65;5.05;;;;;;;31.40;28.35;99415.38;5092858;28;20089;-85
2022/05/14 11:22:48;;;;;;;6.45;4.75;;;;;;;31.66;28.01;99431.78;5074639;28;20028;-85
2022/05/14 11:25:24;;;;;;;5.88;4.50;;;;;;;31.39;27.37;99375.59;5092876;28;20024;-85
2022/05/14 11:28:11;;;;;;;7.90;4.95;;;;;;;31.77;27.54;99430.38;5092565;28;20385;-85
2022/05/14 11:30:47;;;;;;;5.15;4.57;;;;;;;31.68;27.59;99390.53;5092554;28;20099;-85
2022/05/14 11:33:27;;;;;;;8.35;5.00;;;;;;;31.40;27.85;99355.34;5092285;28;20026;-86
2022/05/14 11:36:17;;;;;;;10.57;4.45;;;;;;;30.97;27.96;99292.53;5092361;28;20020;-86
2022/05/14 11:38:49;;;;;;;7.15;4.45;;;;;;;31.75;28.31;99416.25;5092327;28;20582;-85
2022/05/14 11:41:35;;;;;;;14.57;5.03;;;;;;;31.43;29.27;99406.56;5092249;28;20526;-84
2022/05/14 11:44:04;;;;;;;7.43;4.93;;;;;;;31.39;28.97;99383.75;5092609;28;20027;-85
2022/05/14 11:46:48;;;;;;;5.15;4.10;;;;;;;31.50;28.40;99427.91;5092591;28;20024;-85
2022/05/14 11:49:41;;;;;;;4.03;3.63;;;;;;;31.43;28.22;99414.75;5074687;28;20024;-85
2022/05/14 11:52:19;;;;;;;5.50;3.55;;;;;;;31.25;28.58;99410.38;5093525;28;20024;-85
2022/05/14 11:55:06;;;;;;;7.80;4.00;;;;;;;31.15;28.80;99408.72;5104225;28;20011;-84
2022/05/14 11:57:36;;;;;;;6.30;3.25;;;;;;;30.97;27.90;99418.75;5112311;28;20020;-84
2022/05/14 12:00:09;;;;;;;4.90;3.03;;;;;;;29.90;27.81;99253.81;5094043;28;20032;-84
2022/05/14 12:02:34;;;;;;;4.82;3.17;;;;;;;31.24;27.34;99406.06;5103148;28;20024;-85